createdAt,value
2023-02-17T00:01:52.100Z,101366.56
2023-02-17T00:04:21.790Z,101373.16
2023-02-17T00:06:51.840Z,101375.94
2023-02-17T00:09:22.221Z,101364.84
2023-02-17T00:11:52.699Z,101369.59
2023-02-17T00:14:22.346Z,101358.56
2023-02-17T00:16:52.312Z,101359.69
2023-02-17T00:19:25.560Z,101359.38
2023-02-17T00:22:00.880Z,101346.91
2023-02-17T00:24:40.043Z,101346.41
2023-02-17T00:27:11.094Z,101334.00
2023-02-17T00:29:41.238Z,101334.03
2023-02-17T00:32:10.624Z,101333.47
2023-02-17T00:34:39.084Z,101323.06
2023-02-17T00:37:06.507Z,101316.47
2023-02-17T00:39:37.726Z,101315.66
2023-02-17T00:42:11.174Z,101317.00
2023-02-17T00:44:41.647Z,101331.09
2023-02-17T00:47:11.691Z,101321.47
2023-02-17T00:49:41.802Z,101315.13
2023-02-17T00:52:12.166Z,101312.63
2023-02-17T00:54:42.558Z,101307.34
2023-02-17T00:57:12.629Z,101304.91
2023-02-17T00:59:42.807Z,101304.63
2023-02-17T01:02:12.951Z,101293.09
2023-02-17T01:04:43.120Z,101296.69
2023-02-17T01:07:13.244Z,101292.84
2023-02-17T01:09:43.330Z,101278.25
2023-02-17T01:12:18.403Z,101277.16
2023-02-17T01:14:48.881Z,101276.84
2023-02-17T01:17:18.985Z,101269.72
2023-02-17T01:19:47.398Z,101264.94
2023-02-17T01:22:15.921Z,101273.75
2023-02-17T01:24:44.460Z,101271.63
2023-02-17T01:27:12.737Z,101264.44
2023-02-17T01:29:41.077Z,101250.13
2023-02-17T01:32:09.498Z,101250.66
2023-02-17T01:34:39.041Z,101259.81
2023-02-17T01:37:06.565Z,101251.56
2023-02-17T01:39:34.806Z,101239.47
2023-02-17T01:42:05.087Z,101242.19
2023-02-17T01:44:35.430Z,101237.50
2023-02-17T01:47:05.531Z,101239.72
2023-02-17T01:49:42.200Z,101229.22
2023-02-17T01:52:26.537Z,101233.09
2023-02-17T01:55:09.052Z,101229.25
2023-02-17T01:57:45.596Z,101218.78
2023-02-17T02:00:18.804Z,101225.16
2023-02-17T02:02:51.669Z,101224.88
2023-02-17T02:05:23.238Z,101217.19
2023-02-17T02:07:54.784Z,101217.47
2023-02-17T02:10:25.033Z,101217.47
2023-02-17T02:12:54.562Z,101209.41
2023-02-17T02:15:38.008Z,101206.38
2023-02-17T02:18:44.140Z,101204.19
2023-02-17T02:21:34.645Z,101194.59
2023-02-17T02:24:53.996Z,101191.81
2023-02-17T02:27:53.761Z,101187.41
2023-02-17T02:31:17.689Z,101170.34
2023-02-17T02:34:00.602Z,101156.53
2023-02-17T02:37:00.506Z,101146.91
2023-02-17T02:39:40.626Z,101147.13
2023-02-17T02:42:21.472Z,101144.09
2023-02-17T02:44:52.105Z,101139.69
2023-02-17T02:47:38.886Z,101140.00
2023-02-17T02:50:33.592Z,101143.56
2023-02-17T02:53:43.547Z,101140.84
2023-02-17T02:56:31.532Z,101129.88
2023-02-17T02:59:26.215Z,101126.31
2023-02-17T03:02:27.389Z,101128.25
2023-02-17T03:05:42.846Z,101122.13
2023-02-17T03:08:36.332Z,101115.56
2023-02-17T03:11:07.782Z,101105.91
2023-02-17T03:13:39.620Z,101103.34
2023-02-17T03:16:12.202Z,101108.66
2023-02-17T03:18:42.659Z,101096.19
2023-02-17T03:21:16.754Z,101091.31
2023-02-17T03:23:46.807Z,101090.47
2023-02-17T03:26:16.932Z,101091.59
2023-02-17T03:28:47.036Z,101082.75
2023-02-17T03:31:17.435Z,101080.31
2023-02-17T03:33:47.758Z,101087.19
2023-02-17T03:36:18.179Z,101090.25
2023-02-17T03:38:48.342Z,101088.56
2023-02-17T03:41:18.438Z,101099.06
2023-02-17T03:43:48.527Z,101096.47
2023-02-17T03:46:19.164Z,101096.75
2023-02-17T03:48:49.462Z,101084.91
2023-02-17T03:51:24.449Z,101087.72
2023-02-17T03:53:54.489Z,101087.34
2023-02-17T03:56:24.553Z,101078.28
2023-02-17T03:58:54.703Z,101078.88
2023-02-17T04:01:25.089Z,101074.47
2023-02-17T04:03:55.246Z,101069.25
2023-02-17T04:06:25.431Z,101074.31
2023-02-17T04:08:55.557Z,101072.69
2023-02-17T04:11:25.695Z,101069.75
2023-02-17T04:13:55.870Z,101059.03
2023-02-17T04:16:26.039Z,101062.94
2023-02-17T04:18:56.150Z,101056.88
2023-02-17T04:21:26.491Z,101063.47
2023-02-17T04:23:57.511Z,101048.84
2023-02-17T04:26:29.326Z,101052.19
2023-02-17T04:28:59.423Z,101056.34
2023-02-17T04:31:29.697Z,101053.00
2023-02-17T04:33:59.843Z,101044.47
2023-02-17T04:36:30.025Z,101040.00
2023-02-17T04:39:00.091Z,101042.25
2023-02-17T04:41:30.156Z,101035.88
2023-02-17T04:44:00.244Z,101028.75
2023-02-17T04:46:30.596Z,101023.50
2023-02-17T04:49:00.700Z,101036.75
2023-02-17T04:51:31.036Z,101036.47
2023-02-17T04:54:01.132Z,101043.88
2023-02-17T04:56:29.549Z,101041.13
2023-02-17T04:58:57.976Z,101039.44
2023-02-17T05:01:26.496Z,101019.94
2023-02-17T05:03:54.779Z,101023.50
2023-02-17T05:06:23.359Z,101023.25
2023-02-17T05:08:53.784Z,101016.84
2023-02-17T05:11:23.534Z,101020.38
2023-02-17T05:13:52.535Z,101023.38
2023-02-17T05:16:20.105Z,101022.25
2023-02-17T05:18:48.557Z,101008.47
2023-02-17T05:21:17.189Z,101012.34
2023-02-17T05:23:45.366Z,101010.22
2023-02-17T05:26:14.503Z,101005.78
2023-02-17T05:28:42.485Z,100995.38
2023-02-17T05:31:11.163Z,101002.81
2023-02-17T05:33:39.160Z,100993.38
2023-02-17T05:36:11.605Z,100994.16
2023-02-17T05:38:40.860Z,100982.84
2023-02-17T05:41:10.921Z,100982.69
2023-02-17T05:43:40.684Z,100993.09
2023-02-17T05:46:10.772Z,100984.03
2023-02-17T05:48:41.452Z,100982.88
2023-02-17T05:51:10.942Z,100980.09
2023-02-17T05:53:40.785Z,100981.44
2023-02-17T05:56:11.004Z,100985.03
2023-02-17T05:58:40.708Z,100981.19
2023-02-17T06:01:13.247Z,100973.44
2023-02-17T06:03:42.509Z,100979.91
2023-02-17T06:06:12.386Z,100983.53
2023-02-17T06:08:42.605Z,100978.00
2023-02-17T06:11:12.793Z,100984.66
2023-02-17T06:13:42.956Z,100979.97
2023-02-17T06:16:12.771Z,100977.41
2023-02-17T06:18:42.735Z,100974.16
2023-02-17T06:21:12.781Z,100966.38
2023-02-17T06:23:42.468Z,100960.88
2023-02-17T06:26:12.364Z,100964.69
2023-02-17T06:28:42.189Z,100957.81
2023-02-17T06:31:12.390Z,100961.06
2023-02-17T06:33:42.929Z,100956.06
2023-02-17T06:36:11.140Z,100958.19
2023-02-17T06:38:39.327Z,100947.88
2023-02-17T06:41:07.688Z,100951.84
2023-02-17T06:43:36.115Z,100949.78
2023-02-17T06:46:05.234Z,100947.88
2023-02-17T06:48:35.974Z,100952.44
2023-02-17T06:51:05.121Z,100936.69
2023-02-17T06:53:32.824Z,100939.69
2023-02-17T06:56:01.182Z,100938.16
2023-02-17T06:58:29.638Z,100946.81
2023-02-17T07:00:57.985Z,100943.59
2023-02-17T07:03:26.506Z,100946.81
2023-02-17T07:06:01.366Z,100946.84
2023-02-17T07:08:32.433Z,100946.31
2023-02-17T07:11:13.088Z,100944.00
2023-02-17T07:13:42.535Z,100930.41
2023-02-17T07:16:15.026Z,100941.44
2023-02-17T07:18:44.835Z,100930.44
2023-02-17T07:21:15.399Z,100933.69
2023-02-17T07:23:45.350Z,100939.88
2023-02-17T07:26:15.916Z,100935.94
2023-02-17T07:28:46.044Z,100928.47
2023-02-17T07:31:18.258Z,100933.38
2023-02-17T07:33:50.121Z,100932.56
2023-02-17T07:36:19.284Z,100928.59
2023-02-17T07:38:49.529Z,100919.03
2023-02-17T07:41:24.925Z,100917.78
2023-02-17T07:43:57.728Z,100910.38
2023-02-17T07:46:27.933Z,100917.56
2023-02-17T07:48:58.744Z,100911.94
2023-02-17T07:51:28.906Z,100912.44
2023-02-17T07:53:58.867Z,100906.63
2023-02-17T07:56:30.162Z,100896.25
2023-02-17T07:59:00.260Z,100890.81
2023-02-17T08:01:30.274Z,100890.28
2023-02-17T08:04:00.084Z,100894.50
2023-02-17T08:06:30.142Z,100893.13
2023-02-17T08:09:18.992Z,100886.56
2023-02-17T08:12:08.765Z,100902.75
2023-02-17T08:14:39.116Z,100901.84
2023-02-17T08:17:09.062Z,100904.19
2023-02-17T08:19:47.992Z,100896.09
2023-02-17T08:22:19.045Z,100899.75
2023-02-17T08:24:49.267Z,100900.22
2023-02-17T08:27:21.306Z,100898.16
2023-02-17T08:29:50.787Z,100897.03
2023-02-17T08:32:20.300Z,100893.66
2023-02-17T08:34:49.650Z,100895.72
2023-02-17T08:37:17.117Z,100891.00
2023-02-17T08:39:45.496Z,100890.03
2023-02-17T08:42:20.051Z,100892.81
2023-02-17T08:44:50.011Z,100894.88
2023-02-17T08:47:19.832Z,100888.41
2023-02-17T08:49:49.569Z,100893.66
2023-02-17T08:52:19.596Z,100886.56
2023-02-17T08:54:51.582Z,100895.50
2023-02-17T08:57:22.535Z,100886.69
2023-02-17T08:59:54.239Z,100883.00
2023-02-17T09:02:24.261Z,100878.97
2023-02-17T09:04:54.263Z,100863.66
2023-02-17T09:07:24.362Z,100871.22
2023-02-17T09:09:54.091Z,100849.84
2023-02-17T09:12:24.105Z,100856.50
2023-02-17T09:14:53.921Z,100833.94
2023-02-17T09:17:24.182Z,100839.91
2023-02-17T09:19:54.842Z,100827.59
2023-02-17T09:22:31.904Z,100832.72
2023-02-17T09:25:04.708Z,100825.56
2023-02-17T09:27:33.924Z,100818.00
2023-02-17T09:30:05.279Z,100807.75
2023-02-17T09:32:32.730Z,100798.44
2023-02-17T09:35:06.066Z,100788.91
2023-02-17T09:37:36.187Z,100792.81
2023-02-17T09:40:08.668Z,100789.63
2023-02-17T09:42:41.326Z,100791.34
2023-02-17T09:45:32.599Z,100780.41
2023-02-17T09:48:11.730Z,100781.00
2023-02-17T09:51:48.082Z,100771.72
2023-02-17T09:55:10.571Z,100766.78
2023-02-17T09:58:03.385Z,100755.94
2023-02-17T10:00:46.665Z,100753.66
2023-02-17T10:03:35.941Z,100748.34
2023-02-17T10:07:24.776Z,100742.72
2023-02-17T10:10:27.572Z,100746.03
2023-02-17T10:13:04.470Z,100737.91
2023-02-17T10:15:48.617Z,100741.09
2023-02-17T10:18:31.376Z,100727.56
2023-02-17T10:21:40.686Z,100727.16
2023-02-17T10:24:10.868Z,100725.09
2023-02-17T10:27:32.501Z,100722.03
2023-02-17T10:30:40.445Z,100714.13
2023-02-17T10:33:47.516Z,100709.22
2023-02-17T10:36:56.808Z,100696.72
2023-02-17T10:39:50.641Z,100678.38
2023-02-17T10:42:35.705Z,100678.63
2023-02-17T10:45:13.293Z,100684.34
2023-02-17T10:47:44.598Z,100683.41
2023-02-17T10:50:25.416Z,100667.56
2023-02-17T10:52:57.329Z,100661.09
2023-02-17T10:56:07.469Z,100662.78
2023-02-17T10:58:46.079Z,100655.63
2023-02-17T11:01:16.402Z,100651.59
2023-02-17T11:03:46.626Z,100650.97
2023-02-17T11:06:23.652Z,100649.53
2023-02-17T11:09:07.668Z,100634.47
2023-02-17T11:11:37.297Z,100618.78
2023-02-17T11:14:19.483Z,100622.84
2023-02-17T11:17:29.302Z,100598.56
2023-02-17T11:20:07.388Z,100595.66
2023-02-17T11:22:47.208Z,100588.22
2023-02-17T11:25:32.278Z,100572.25
2023-02-17T11:28:24.026Z,100559.56
2023-02-17T11:31:00.357Z,100576.63
2023-02-17T11:33:39.491Z,100569.63
2023-02-17T11:36:32.379Z,100566.94
2023-02-17T11:39:20.936Z,100543.00
2023-02-17T11:41:51.041Z,100540.22
2023-02-17T11:44:28.401Z,100547.25
2023-02-17T11:47:22.816Z,100551.13
2023-02-17T11:51:03.036Z,100539.94
2023-02-17T11:54:18.045Z,100513.03
2023-02-17T11:57:00.492Z,100513.84
2023-02-17T11:59:53.542Z,100499.19
2023-02-17T12:02:56.058Z,100492.50
2023-02-17T12:06:08.887Z,100487.09
2023-02-17T12:09:20.868Z,100472.28
2023-02-17T12:12:18.272Z,100462.84
2023-02-17T12:15:36.560Z,100473.56
2023-02-17T12:18:58.726Z,100459.41
2023-02-17T12:22:22.545Z,100460.03
2023-02-17T12:25:10.221Z,100465.22
2023-02-17T12:28:20.808Z,100460.66
2023-02-17T12:31:11.499Z,100436.97
2023-02-17T12:34:24.385Z,100429.09
2023-02-17T12:36:59.273Z,100436.44
2023-02-17T12:39:46.049Z,100433.81
2023-02-17T12:43:07.125Z,100417.75
2023-02-17T12:45:46.741Z,100423.94
2023-02-17T12:48:45.753Z,100420.72
2023-02-17T12:51:31.960Z,100385.09
2023-02-17T12:54:52.920Z,100393.44
2023-02-17T12:57:53.393Z,100389.88
2023-02-17T13:00:44.491Z,100388.25
2023-02-17T13:03:15.150Z,100396.97
2023-02-17T13:06:38.276Z,100396.25
2023-02-17T13:09:44.448Z,100389.59
2023-02-17T13:12:23.648Z,100382.13
2023-02-17T13:14:59.674Z,100393.94
2023-02-17T13:17:34.730Z,100393.78
2023-02-17T13:20:10.626Z,100392.38
2023-02-17T13:22:45.761Z,100388.78
2023-02-17T13:25:37.771Z,100387.44
2023-02-17T13:28:38.843Z,100393.09
2023-02-17T13:31:25.382Z,100386.75
2023-02-17T13:33:59.397Z,100382.84
2023-02-17T13:36:29.250Z,100387.75
2023-02-17T13:39:27.028Z,100370.28
2023-02-17T13:42:02.444Z,100375.69
2023-02-17T13:44:40.752Z,100372.59
2023-02-17T13:47:37.703Z,100363.09
2023-02-17T13:50:37.234Z,100359.44
2023-02-17T13:53:40.173Z,100345.69
2023-02-17T13:56:31.009Z,100359.91
2023-02-17T13:59:18.403Z,100353.34
2023-02-17T14:01:49.521Z,100357.94
2023-02-17T14:04:30.520Z,100358.78
2023-02-17T14:07:05.571Z,100360.78
2023-02-17T14:09:35.819Z,100361.34
2023-02-17T14:12:26.070Z,100353.41
2023-02-17T14:14:56.211Z,100365.06
2023-02-17T14:17:33.080Z,100370.69
2023-02-17T14:20:03.393Z,100370.53
2023-02-17T14:22:35.961Z,100369.34
2023-02-17T14:25:25.888Z,100374.09
2023-02-17T14:27:56.572Z,100371.31
2023-02-17T14:30:40.181Z,100385.88
2023-02-17T14:33:16.361Z,100375.84
2023-02-17T14:36:06.469Z,100363.72
2023-02-17T14:38:42.437Z,100370.69
2023-02-17T14:41:12.456Z,100377.47
2023-02-17T14:43:42.463Z,100375.97
2023-02-17T14:46:12.666Z,100378.13
2023-02-17T14:48:42.916Z,100380.72
2023-02-17T14:51:18.234Z,100389.81
2023-02-17T14:53:51.255Z,100395.22
2023-02-17T14:56:38.350Z,100391.19
2023-02-17T14:59:10.914Z,100395.50
2023-02-17T15:01:41.019Z,100397.19
2023-02-17T15:04:11.043Z,100396.59
2023-02-17T15:06:49.577Z,100397.28
2023-02-17T15:09:30.153Z,100392.38
2023-02-17T15:11:59.254Z,100392.34
2023-02-17T15:14:28.651Z,100398.38
2023-02-17T15:16:58.706Z,100403.75
2023-02-17T15:19:27.149Z,100399.91
2023-02-17T15:21:57.206Z,100395.38
2023-02-17T15:24:32.462Z,100396.88
2023-02-17T15:27:05.927Z,100392.66
2023-02-17T15:29:36.658Z,100385.94
2023-02-17T15:32:24.027Z,100388.03
2023-02-17T15:34:54.728Z,100392.50
2023-02-17T15:37:23.104Z,100399.53
2023-02-17T15:39:51.004Z,100383.72
2023-02-17T15:42:19.932Z,100391.91
2023-02-17T15:44:50.896Z,100390.25
2023-02-17T15:47:21.406Z,100385.84
2023-02-17T15:49:51.301Z,100383.25
2023-02-17T15:52:21.545Z,100383.53
2023-02-17T15:54:51.020Z,100369.50
2023-02-17T15:57:25.491Z,100362.38
2023-02-17T15:59:55.523Z,100364.81
2023-02-17T16:02:26.520Z,100365.16
2023-02-17T16:04:56.253Z,100368.53
2023-02-17T16:07:26.082Z,100362.63
2023-02-17T16:09:55.844Z,100369.06
2023-02-17T16:12:28.659Z,100363.56
2023-02-17T16:14:59.027Z,100361.19
2023-02-17T16:17:28.524Z,100356.47
2023-02-17T16:19:58.313Z,100367.25
2023-02-17T16:22:30.173Z,100381.75
2023-02-17T16:24:58.035Z,100379.03
2023-02-17T16:27:27.877Z,100383.09
2023-02-17T16:29:57.822Z,100383.63
2023-02-17T16:32:27.907Z,100377.66
2023-02-17T16:34:57.849Z,100391.53
2023-02-17T16:37:27.603Z,100395.94
2023-02-17T16:39:58.100Z,100412.88
2023-02-17T16:42:28.116Z,100408.13
2023-02-17T16:44:57.882Z,100415.78
2023-02-17T16:47:30.715Z,100402.38
2023-02-17T16:50:08.759Z,100420.41
2023-02-17T16:52:38.826Z,100420.84
2023-02-17T16:55:15.128Z,100431.81
2023-02-17T16:57:47.893Z,100403.88
2023-02-17T17:00:24.539Z,100412.81
2023-02-17T17:02:55.005Z,100422.50
2023-02-17T17:05:29.661Z,100428.03
2023-02-17T17:07:59.476Z,100410.91
2023-02-17T17:10:33.011Z,100418.09
2023-02-17T17:13:03.241Z,100406.16
2023-02-17T17:15:40.078Z,100404.41
2023-02-17T17:18:19.745Z,100406.16
2023-02-17T17:20:50.777Z,100408.41
2023-02-17T17:23:20.969Z,100403.34
2023-02-17T17:25:48.877Z,100414.59
2023-02-17T17:28:20.043Z,100402.53
2023-02-17T17:30:49.904Z,100418.53
2023-02-17T17:33:19.790Z,100407.34
2023-02-17T17:35:49.587Z,100402.75
2023-02-17T17:38:19.599Z,100409.09
2023-02-17T17:40:49.745Z,100395.88
2023-02-17T17:43:23.561Z,100395.13
2023-02-17T17:45:54.734Z,100401.47
2023-02-17T17:48:23.630Z,100401.97
2023-02-17T17:50:52.145Z,100415.69
2023-02-17T17:53:20.409Z,100421.09
2023-02-17T17:55:48.779Z,100419.03
2023-02-17T17:58:17.307Z,100403.22
2023-02-17T18:00:45.743Z,100425.94
2023-02-17T18:03:14.017Z,100451.88
2023-02-17T18:05:42.531Z,100448.06
2023-02-17T18:08:11.461Z,100429.47
2023-02-17T18:10:42.810Z,100451.38
2023-02-17T18:13:14.639Z,100451.97
2023-02-17T18:15:45.441Z,100425.09
2023-02-17T18:18:14.945Z,100425.75
2023-02-17T18:20:45.576Z,100443.22
2023-02-17T18:23:15.534Z,100445.84
2023-02-17T18:25:45.609Z,100470.47
2023-02-17T18:28:15.440Z,100485.13
2023-02-17T18:30:45.542Z,100490.22
2023-02-17T18:33:16.012Z,100492.03
2023-02-17T18:35:45.659Z,100503.63
2023-02-17T18:38:15.750Z,100512.28
2023-02-17T18:40:45.540Z,100538.75
2023-02-17T18:43:16.875Z,100543.47
2023-02-17T18:45:49.132Z,100529.28
2023-02-17T18:48:19.384Z,100544.19
2023-02-17T18:50:50.634Z,100552.81
2023-02-17T18:53:20.701Z,100550.88
2023-02-17T18:55:50.615Z,100550.56
2023-02-17T18:58:20.965Z,100562.47
2023-02-17T19:00:51.062Z,100552.03
2023-02-17T19:03:20.849Z,100576.84
2023-02-17T19:05:50.748Z,100563.91
2023-02-17T19:08:20.825Z,100572.75
2023-02-17T19:10:53.653Z,100569.16
2023-02-17T19:13:23.845Z,100576.34
2023-02-17T19:15:53.504Z,100576.84
2023-02-17T19:18:23.512Z,100585.16
2023-02-17T19:20:54.477Z,100590.69
2023-02-17T19:23:24.816Z,100586.59
2023-02-17T19:25:55.020Z,100614.50
2023-02-17T19:28:24.970Z,100612.03
2023-02-17T19:30:58.788Z,100622.81
2023-02-17T19:33:29.055Z,100612.81
2023-02-17T19:35:59.208Z,100620.63
2023-02-17T19:38:30.144Z,100642.16
2023-02-17T19:41:05.958Z,100656.19
2023-02-17T19:43:36.595Z,100655.03
2023-02-17T19:46:07.041Z,100664.47
2023-02-17T19:48:37.313Z,100668.03
2023-02-17T19:51:10.143Z,100658.19
2023-02-17T19:53:45.442Z,100651.28
2023-02-17T19:56:21.140Z,100664.06
2023-02-17T19:58:51.328Z,100674.69
2023-02-17T20:01:28.880Z,100687.91
2023-02-17T20:04:01.504Z,100686.09
2023-02-17T20:06:40.934Z,100684.44
2023-02-17T20:09:19.313Z,100677.00
2023-02-17T20:11:53.088Z,100698.91
2023-02-17T20:14:22.065Z,100699.13
2023-02-17T20:16:53.396Z,100691.34
2023-02-17T20:19:21.653Z,100693.94
2023-02-17T20:21:49.993Z,100679.69
2023-02-17T20:24:18.258Z,100696.28
2023-02-17T20:26:51.009Z,100699.19
2023-02-17T20:29:20.760Z,100699.19
2023-02-17T20:31:50.711Z,100709.56
2023-02-17T20:34:39.220Z,100701.78
2023-02-17T20:37:11.217Z,100700.56
2023-02-17T20:39:42.334Z,100711.78
2023-02-17T20:42:18.725Z,100715.69
2023-02-17T20:44:50.315Z,100725.75
2023-02-17T20:47:21.337Z,100732.28
2023-02-17T20:49:50.236Z,100734.53
2023-02-17T20:52:20.599Z,100724.13
2023-02-17T20:54:50.242Z,100743.47
2023-02-17T20:57:19.992Z,100749.19
2023-02-17T20:59:50.448Z,100756.16
2023-02-17T21:02:19.751Z,100763.00
2023-02-17T21:04:49.571Z,100751.75
2023-02-17T21:07:19.558Z,100768.53
2023-02-17T21:09:49.415Z,100790.63
2023-02-17T21:12:19.797Z,100783.06
2023-02-17T21:14:50.056Z,100780.56
2023-02-17T21:17:20.115Z,100792.97
2023-02-17T21:19:51.164Z,100796.75
2023-02-17T21:22:19.557Z,100805.94
2023-02-17T21:24:49.392Z,100790.53
2023-02-17T21:27:19.303Z,100799.75
2023-02-17T21:29:49.325Z,100812.34
2023-02-17T21:32:20.414Z,100804.22
2023-02-17T21:34:50.043Z,100797.38
2023-02-17T21:37:19.925Z,100810.84
2023-02-17T21:39:49.975Z,100795.34
2023-02-17T21:42:39.950Z,100805.44
2023-02-17T21:45:10.143Z,100803.88
2023-02-17T21:47:40.117Z,100816.19
2023-02-17T21:50:11.048Z,100821.72
2023-02-17T21:52:40.207Z,100821.53
2023-02-17T21:55:08.565Z,100816.47
2023-02-17T21:57:36.957Z,100828.19
2023-02-17T22:00:07.058Z,100837.22
2023-02-17T22:02:37.091Z,100836.91
2023-02-17T22:05:06.071Z,100844.16
2023-02-17T22:07:33.687Z,100823.72
2023-02-17T22:10:04.716Z,100840.88
2023-02-17T22:12:37.344Z,100841.47
2023-02-17T22:15:08.639Z,100848.63
2023-02-17T22:17:38.781Z,100851.38
2023-02-17T22:20:09.680Z,100867.03
2023-02-17T22:22:39.670Z,100875.44
2023-02-17T22:25:09.881Z,100869.03
2023-02-17T22:27:39.933Z,100870.50
2023-02-17T22:30:11.110Z,100873.59
2023-02-17T22:32:43.076Z,100883.00
2023-02-17T22:35:14.719Z,100876.56
2023-02-17T22:37:44.560Z,100870.69
2023-02-17T22:40:13.024Z,100873.78
2023-02-17T22:42:41.353Z,100885.28
2023-02-17T22:45:09.983Z,100882.25
2023-02-17T22:47:38.273Z,100872.69
2023-02-17T22:50:06.998Z,100869.13
2023-02-17T22:52:35.405Z,100901.31
2023-02-17T22:55:03.779Z,100899.47
2023-02-17T22:57:32.045Z,100899.53
2023-02-17T23:00:00.421Z,100904.91
2023-02-17T23:02:28.792Z,100901.91
2023-02-17T23:04:57.223Z,100901.81
2023-02-17T23:07:25.707Z,100900.56
2023-02-17T23:09:54.102Z,100900.91
2023-02-17T23:12:22.774Z,100906.63
2023-02-17T23:14:51.870Z,100896.69
2023-02-17T23:17:20.229Z,100888.13
2023-02-17T23:19:48.783Z,100895.53
2023-02-17T23:22:19.110Z,100906.69
2023-02-17T23:24:48.830Z,100913.88
2023-02-17T23:27:17.756Z,100916.41
2023-02-17T23:29:47.824Z,100897.38
2023-02-17T23:32:17.469Z,100913.09
2023-02-17T23:34:47.348Z,100925.97
2023-02-17T23:37:17.031Z,100921.81
2023-02-17T23:39:46.858Z,100925.22
2023-02-17T23:42:16.851Z,100936.25
2023-02-17T23:44:46.589Z,100928.59
2023-02-17T23:47:16.461Z,100928.94
2023-02-17T23:49:46.329Z,100919.69
2023-02-17T23:52:16.244Z,100931.50
2023-02-17T23:54:46.348Z,100946.34
2023-02-17T23:57:16.147Z,100935.16
2023-02-17T23:59:45.952Z,100945.25
